Aviation Digital Data Service (ADDS)

Output produced by METARs form (1706 UTC 22 September 2017)
found at http://aviationweather.gov/adds/metars/
 
KSMF 221653Z 00000KT 10SM FEW100 16/08 A2993 RMK AO2 SLP136 T01610083 $
KSMF 221146Z 2212/2312 18006KT P6SM SCT080 BKN150 
     FM221900 32006KT P6SM SCT250